sensor_id;sensor_type;location;lat;lon;timestamp;P1;durP1;ratioP1;P2;durP2;ratioP2
24401;SDS011;12539;48.808;11.292;2022-08-21T00:00:10;5.97;;;5.40;;
24401;SDS011;12539;48.808;11.292;2022-08-21T00:02:48;5.97;;;5.43;;
24401;SDS011;12539;48.808;11.292;2022-08-21T00:05:22;7.50;;;6.10;;
24401;SDS011;12539;48.808;11.292;2022-08-21T00:07:49;6.40;;;5.88;;
24401;SDS011;12539;48.808;11.292;2022-08-21T00:10:16;5.43;;;4.82;;
24401;SDS011;12539;48.808;11.292;2022-08-21T00:12:42;8.20;;;7.45;;
24401;SDS011;12539;48.808;11.292;2022-08-21T00:15:11;8.45;;;7.65;;
24401;SDS011;12539;48.808;11.292;2022-08-21T00:17:40;8.45;;;7.68;;
24401;SDS011;12539;48.808;11.292;2022-08-21T00:20:07;9.13;;;8.40;;
24401;SDS011;12539;48.808;11.292;2022-08-21T00:22:35;9.38;;;8.57;;
24401;SDS011;12539;48.808;11.292;2022-08-21T00:25:01;9.65;;;8.88;;
24401;SDS011;12539;48.808;11.292;2022-08-21T00:27:28;7.65;;;6.95;;
24401;SDS011;12539;48.808;11.292;2022-08-21T00:29:54;9.80;;;8.15;;
24401;SDS011;12539;48.808;11.292;2022-08-21T00:32:24;4.10;;;3.78;;
24401;SDS011;12539;48.808;11.292;2022-08-21T00:34:52;10.43;;;9.32;;
24401;SDS011;12539;48.808;11.292;2022-08-21T00:37:18;10.15;;;9.23;;
24401;SDS011;12539;48.808;11.292;2022-08-21T00:39:44;7.80;;;7.10;;
24401;SDS011;12539;48.808;11.292;2022-08-21T00:42:11;9.10;;;8.20;;
24401;SDS011;12539;48.808;11.292;2022-08-21T00:44:41;13.02;;;10.70;;
24401;SDS011;12539;48.808;11.292;2022-08-21T00:47:09;10.52;;;9.63;;
24401;SDS011;12539;48.808;11.292;2022-08-21T00:49:35;12.15;;;11.00;;
24401;SDS011;12539;48.808;11.292;2022-08-21T00:52:03;12.15;;;11.02;;
24401;SDS011;12539;48.808;11.292;2022-08-21T00:54:31;10.77;;;9.77;;
24401;SDS011;12539;48.808;11.292;2022-08-21T00:56:59;10.07;;;9.10;;
24401;SDS011;12539;48.808;11.292;2022-08-21T00:59:29;11.82;;;10.63;;
24401;SDS011;12539;48.808;11.292;2022-08-21T01:01:59;10.57;;;9.57;;
24401;SDS011;12539;48.808;11.292;2022-08-21T01:04:25;10.93;;;9.93;;
24401;SDS011;12539;48.808;11.292;2022-08-21T01:06:51;10.43;;;9.38;;
24401;SDS011;12539;48.808;11.292;2022-08-21T01:09:17;9.73;;;7.95;;
24401;SDS011;12539;48.808;11.292;2022-08-21T01:11:43;10.70;;;9.70;;
24401;SDS011;12539;48.808;11.292;2022-08-21T01:14:10;8.18;;;7.38;;
24401;SDS011;12539;48.808;11.292;2022-08-21T01:16:38;9.18;;;8.30;;
24401;SDS011;12539;48.808;11.292;2022-08-21T01:19:06;9.25;;;8.35;;
24401;SDS011;12539;48.808;11.292;2022-08-21T01:21:33;10.20;;;9.30;;
24401;SDS011;12539;48.808;11.292;2022-08-21T01:24:00;11.98;;;8.70;;
24401;SDS011;12539;48.808;11.292;2022-08-21T01:26:28;7.93;;;7.20;;
24401;SDS011;12539;48.808;11.292;2022-08-21T01:29:00;10.32;;;8.52;;
24401;SDS011;12539;48.808;11.292;2022-08-21T01:31:32;8.13;;;7.15;;
24401;SDS011;12539;48.808;11.292;2022-08-21T01:33:58;8.27;;;6.88;;
24401;SDS011;12539;48.808;11.292;2022-08-21T01:36:25;11.40;;;10.40;;
24401;SDS011;12539;48.808;11.292;2022-08-21T01:38:51;9.30;;;7.65;;
24401;SDS011;12539;48.808;11.292;2022-08-21T01:41:17;15.48;;;10.95;;
24401;SDS011;12539;48.808;11.292;2022-08-21T01:43:43;9.80;;;8.90;;
24401;SDS011;12539;48.808;11.292;2022-08-21T01:46:10;6.65;;;6.05;;
24401;SDS011;12539;48.808;11.292;2022-08-21T01:48:36;10.68;;;7.97;;
24401;SDS011;12539;48.808;11.292;2022-08-21T01:51:03;9.32;;;8.52;;
24401;SDS011;12539;48.808;11.292;2022-08-21T01:53:30;9.55;;;8.68;;
24401;SDS011;12539;48.808;11.292;2022-08-21T01:55:59;9.40;;;8.57;;
24401;SDS011;12539;48.808;11.292;2022-08-21T01:58:25;9.13;;;8.30;;
24401;SDS011;12539;48.808;11.292;2022-08-21T02:00:51;9.43;;;8.50;;
24401;SDS011;12539;48.808;11.292;2022-08-21T02:03:16;9.07;;;8.18;;
24401;SDS011;12539;48.808;11.292;2022-08-21T02:05:42;10.20;;;8.95;;
24401;SDS011;12539;48.808;11.292;2022-08-21T02:08:08;10.05;;;9.05;;
24401;SDS011;12539;48.808;11.292;2022-08-21T02:10:33;10.35;;;9.45;;
24401;SDS011;12539;48.808;11.292;2022-08-21T02:12:59;12.30;;;10.98;;
24401;SDS011;12539;48.808;11.292;2022-08-21T02:15:25;10.23;;;9.25;;
24401;SDS011;12539;48.808;11.292;2022-08-21T02:17:53;10.63;;;9.73;;
24401;SDS011;12539;48.808;11.292;2022-08-21T02:20:30;11.30;;;10.20;;
24401;SDS011;12539;48.808;11.292;2022-08-21T02:23:01;23.00;;;14.20;;
24401;SDS011;12539;48.808;11.292;2022-08-21T02:25:28;23.98;;;14.85;;
24401;SDS011;12539;48.808;11.292;2022-08-21T02:27:55;21.42;;;12.50;;
24401;SDS011;12539;48.808;11.292;2022-08-21T02:30:24;27.20;;;16.00;;
24401;SDS011;12539;48.808;11.292;2022-08-21T02:32:55;29.95;;;17.13;;
24401;SDS011;12539;48.808;11.292;2022-08-21T02:35:22;19.98;;;14.32;;
24401;SDS011;12539;48.808;11.292;2022-08-21T02:37:50;14.40;;;12.10;;
24401;SDS011;12539;48.808;11.292;2022-08-21T02:40:19;13.65;;;12.35;;
24401;SDS011;12539;48.808;11.292;2022-08-21T02:42:48;15.20;;;12.50;;
24401;SDS011;12539;48.808;11.292;2022-08-21T02:45:14;14.50;;;13.07;;
24401;SDS011;12539;48.808;11.292;2022-08-21T02:48:03;20.95;;;13.50;;
24401;SDS011;12539;48.808;11.292;2022-08-21T02:50:30;11.45;;;10.25;;
24401;SDS011;12539;48.808;11.292;2022-08-21T02:53:01;22.45;;;14.13;;
24401;SDS011;12539;48.808;11.292;2022-08-21T02:55:29;20.45;;;13.68;;
24401;SDS011;12539;48.808;11.292;2022-08-21T02:57:56;20.77;;;13.55;;
24401;SDS011;12539;48.808;11.292;2022-08-21T03:00:23;25.08;;;14.90;;
24401;SDS011;12539;48.808;11.292;2022-08-21T03:02:51;11.95;;;10.85;;
24401;SDS011;12539;48.808;11.292;2022-08-21T03:05:18;19.20;;;10.60;;
24401;SDS011;12539;48.808;11.292;2022-08-21T03:07:45;50.83;;;10.98;;
24401;SDS011;12539;48.808;11.292;2022-08-21T03:10:12;26.50;;;11.07;;
24401;SDS011;12539;48.808;11.292;2022-08-21T03:12:38;41.45;;;13.32;;
24401;SDS011;12539;48.808;11.292;2022-08-21T03:15:06;35.30;;;13.80;;
24401;SDS011;12539;48.808;11.292;2022-08-21T03:17:34;16.58;;;11.95;;
24401;SDS011;12539;48.808;11.292;2022-08-21T03:20:00;18.95;;;13.98;;
24401;SDS011;12539;48.808;11.292;2022-08-21T03:22:28;11.85;;;10.85;;
24401;SDS011;12539;48.808;11.292;2022-08-21T03:24:54;16.40;;;9.15;;
24401;SDS011;12539;48.808;11.292;2022-08-21T03:27:20;9.35;;;8.35;;
24401;SDS011;12539;48.808;11.292;2022-08-21T03:29:45;8.93;;;8.13;;
24401;SDS011;12539;48.808;11.292;2022-08-21T03:32:11;8.80;;;7.18;;
24401;SDS011;12539;48.808;11.292;2022-08-21T03:34:37;10.38;;;8.90;;
24401;SDS011;12539;48.808;11.292;2022-08-21T03:37:04;8.23;;;7.25;;
24401;SDS011;12539;48.808;11.292;2022-08-21T03:39:31;9.15;;;8.23;;
24401;SDS011;12539;48.808;11.292;2022-08-21T03:41:56;8.80;;;8.00;;
24401;SDS011;12539;48.808;11.292;2022-08-21T03:44:22;10.73;;;9.60;;
24401;SDS011;12539;48.808;11.292;2022-08-21T03:46:53;15.63;;;11.02;;
24401;SDS011;12539;48.808;11.292;2022-08-21T03:49:18;14.00;;;10.75;;
24401;SDS011;12539;48.808;11.292;2022-08-21T03:51:44;10.48;;;8.93;;
24401;SDS011;12539;48.808;11.292;2022-08-21T03:54:10;26.73;;;12.75;;
24401;SDS011;12539;48.808;11.292;2022-08-21T03:56:35;10.52;;;9.38;;
24401;SDS011;12539;48.808;11.292;2022-08-21T03:59:01;16.55;;;11.73;;
24401;SDS011;12539;48.808;11.292;2022-08-21T04:01:28;10.50;;;9.50;;
24401;SDS011;12539;48.808;11.292;2022-08-21T04:03:54;15.80;;;11.95;;
24401;SDS011;12539;48.808;11.292;2022-08-21T04:06:20;23.65;;;13.20;;
24401;SDS011;12539;48.808;11.292;2022-08-21T04:08:46;17.35;;;12.07;;
24401;SDS011;12539;48.808;11.292;2022-08-21T04:11:12;11.95;;;10.02;;
24401;SDS011;12539;48.808;11.292;2022-08-21T04:13:37;10.57;;;9.30;;
24401;SDS011;12539;48.808;11.292;2022-08-21T04:16:04;14.57;;;11.15;;
24401;SDS011;12539;48.808;11.292;2022-08-21T04:18:29;25.52;;;13.18;;
24401;SDS011;12539;48.808;11.292;2022-08-21T04:20:56;16.52;;;11.98;;
24401;SDS011;12539;48.808;11.292;2022-08-21T04:23:23;8.98;;;7.97;;
24401;SDS011;12539;48.808;11.292;2022-08-21T04:25:49;11.85;;;8.35;;
24401;SDS011;12539;48.808;11.292;2022-08-21T04:28:16;6.75;;;6.15;;
24401;SDS011;12539;48.808;11.292;2022-08-21T04:30:41;8.43;;;6.50;;
24401;SDS011;12539;48.808;11.292;2022-08-21T04:33:07;5.97;;;5.43;;
24401;SDS011;12539;48.808;11.292;2022-08-21T04:35:33;7.25;;;6.55;;
24401;SDS011;12539;48.808;11.292;2022-08-21T04:37:59;4.88;;;4.47;;
24401;SDS011;12539;48.808;11.292;2022-08-21T04:40:26;5.75;;;4.85;;
24401;SDS011;12539;48.808;11.292;2022-08-21T04:42:57;4.63;;;4.22;;
24401;SDS011;12539;48.808;11.292;2022-08-21T04:45:29;6.80;;;5.57;;
24401;SDS011;12539;48.808;11.292;2022-08-21T04:47:58;5.93;;;5.35;;
24401;SDS011;12539;48.808;11.292;2022-08-21T04:50:38;8.10;;;7.30;;
24401;SDS011;12539;48.808;11.292;2022-08-21T04:53:16;5.67;;;5.10;;
24401;SDS011;12539;48.808;11.292;2022-08-21T04:58:12;8.48;;;7.38;;
24401;SDS011;12539;48.808;11.292;2022-08-21T05:00:44;8.15;;;6.85;;
24401;SDS011;12539;48.808;11.292;2022-08-21T05:03:11;8.35;;;6.18;;
24401;SDS011;12539;48.808;11.292;2022-08-21T05:05:39;10.48;;;9.07;;
24401;SDS011;12539;48.808;11.292;2022-08-21T05:08:05;5.03;;;4.55;;
24401;SDS011;12539;48.808;11.292;2022-08-21T05:10:33;8.25;;;7.40;;
24401;SDS011;12539;48.808;11.292;2022-08-21T05:12:59;4.05;;;3.65;;
24401;SDS011;12539;48.808;11.292;2022-08-21T05:15:26;4.43;;;3.97;;
24401;SDS011;12539;48.808;11.292;2022-08-21T05:17:52;3.95;;;3.65;;
24401;SDS011;12539;48.808;11.292;2022-08-21T05:20:18;5.55;;;5.00;;
24401;SDS011;12539;48.808;11.292;2022-08-21T05:22:44;5.38;;;4.80;;
24401;SDS011;12539;48.808;11.292;2022-08-21T05:25:10;3.67;;;3.38;;
24401;SDS011;12539;48.808;11.292;2022-08-21T05:27:37;4.68;;;3.83;;
24401;SDS011;12539;48.808;11.292;2022-08-21T05:30:04;4.05;;;3.75;;
24401;SDS011;12539;48.808;11.292;2022-08-21T05:32:34;5.30;;;4.85;;
24401;SDS011;12539;48.808;11.292;2022-08-21T05:35:01;4.40;;;4.00;;
24401;SDS011;12539;48.808;11.292;2022-08-21T05:37:27;5.97;;;5.47;;
24401;SDS011;12539;48.808;11.292;2022-08-21T05:39:53;6.22;;;5.72;;
24401;SDS011;12539;48.808;11.292;2022-08-21T05:42:19;4.22;;;3.92;;
24401;SDS011;12539;48.808;11.292;2022-08-21T05:44:44;8.15;;;7.45;;
24401;SDS011;12539;48.808;11.292;2022-08-21T05:47:10;5.55;;;5.10;;
24401;SDS011;12539;48.808;11.292;2022-08-21T05:49:36;6.13;;;5.45;;
24401;SDS011;12539;48.808;11.292;2022-08-21T05:52:03;4.80;;;4.35;;
24401;SDS011;12539;48.808;11.292;2022-08-21T05:54:29;6.82;;;6.20;;
24401;SDS011;12539;48.808;11.292;2022-08-21T05:56:55;5.55;;;5.03;;
24401;SDS011;12539;48.808;11.292;2022-08-21T05:59:21;5.88;;;5.30;;
24401;SDS011;12539;48.808;11.292;2022-08-21T06:01:47;7.03;;;6.40;;
24401;SDS011;12539;48.808;11.292;2022-08-21T06:04:13;5.57;;;5.07;;
24401;SDS011;12539;48.808;11.292;2022-08-21T06:06:39;8.57;;;7.57;;
24401;SDS011;12539;48.808;11.292;2022-08-21T06:09:05;8.68;;;7.00;;
24401;SDS011;12539;48.808;11.292;2022-08-21T06:11:31;10.32;;;7.70;;
24401;SDS011;12539;48.808;11.292;2022-08-21T06:13:58;16.13;;;8.07;;
24401;SDS011;12539;48.808;11.292;2022-08-21T06:16:24;15.57;;;8.40;;
24401;SDS011;12539;48.808;11.292;2022-08-21T06:18:52;8.75;;;6.50;;
24401;SDS011;12539;48.808;11.292;2022-08-21T06:21:18;7.00;;;6.30;;
24401;SDS011;12539;48.808;11.292;2022-08-21T06:23:44;11.75;;;6.70;;
24401;SDS011;12539;48.808;11.292;2022-08-21T06:26:10;9.65;;;6.45;;
24401;SDS011;12539;48.808;11.292;2022-08-21T06:28:38;8.20;;;5.70;;
24401;SDS011;12539;48.808;11.292;2022-08-21T06:31:15;6.22;;;4.82;;
24401;SDS011;12539;48.808;11.292;2022-08-21T06:33:45;6.95;;;5.10;;
24401;SDS011;12539;48.808;11.292;2022-08-21T06:36:11;5.93;;;4.65;;
24401;SDS011;12539;48.808;11.292;2022-08-21T06:38:37;11.20;;;5.10;;
24401;SDS011;12539;48.808;11.292;2022-08-21T06:41:03;8.20;;;5.22;;
24401;SDS011;12539;48.808;11.292;2022-08-21T06:43:29;5.75;;;4.90;;
24401;SDS011;12539;48.808;11.292;2022-08-21T06:45:55;5.68;;;4.93;;
24401;SDS011;12539;48.808;11.292;2022-08-21T06:48:21;5.15;;;4.65;;
24401;SDS011;12539;48.808;11.292;2022-08-21T06:50:47;6.18;;;5.57;;
24401;SDS011;12539;48.808;11.292;2022-08-21T06:53:14;5.40;;;4.90;;
24401;SDS011;12539;48.808;11.292;2022-08-21T06:55:42;6.32;;;5.25;;
24401;SDS011;12539;48.808;11.292;2022-08-21T06:58:08;5.50;;;5.00;;
24401;SDS011;12539;48.808;11.292;2022-08-21T07:00:35;6.95;;;5.22;;
24401;SDS011;12539;48.808;11.292;2022-08-21T07:03:04;8.65;;;5.78;;
24401;SDS011;12539;48.808;11.292;2022-08-21T07:05:30;5.45;;;4.95;;
24401;SDS011;12539;48.808;11.292;2022-08-21T07:07:56;7.00;;;5.30;;
24401;SDS011;12539;48.808;11.292;2022-08-21T07:10:26;5.88;;;5.28;;
24401;SDS011;12539;48.808;11.292;2022-08-21T07:12:52;6.30;;;5.20;;
24401;SDS011;12539;48.808;11.292;2022-08-21T07:15:19;6.13;;;5.38;;
24401;SDS011;12539;48.808;11.292;2022-08-21T07:17:44;7.95;;;5.57;;
24401;SDS011;12539;48.808;11.292;2022-08-21T07:20:10;8.07;;;5.10;;
24401;SDS011;12539;48.808;11.292;2022-08-21T07:22:36;7.38;;;5.32;;
24401;SDS011;12539;48.808;11.292;2022-08-21T07:25:04;5.60;;;5.10;;
24401;SDS011;12539;48.808;11.292;2022-08-21T07:27:31;7.07;;;5.13;;
24401;SDS011;12539;48.808;11.292;2022-08-21T07:29:57;6.32;;;5.45;;
24401;SDS011;12539;48.808;11.292;2022-08-21T07:32:23;7.20;;;4.82;;
24401;SDS011;12539;48.808;11.292;2022-08-21T07:34:49;6.63;;;4.65;;
24401;SDS011;12539;48.808;11.292;2022-08-21T07:37:15;7.13;;;6.03;;
24401;SDS011;12539;48.808;11.292;2022-08-21T07:39:41;6.57;;;5.85;;
24401;SDS011;12539;48.808;11.292;2022-08-21T07:42:07;6.63;;;5.53;;
24401;SDS011;12539;48.808;11.292;2022-08-21T07:44:33;6.35;;;5.70;;
24401;SDS011;12539;48.808;11.292;2022-08-21T07:46:59;6.30;;;5.75;;
24401;SDS011;12539;48.808;11.292;2022-08-21T07:49:26;5.65;;;4.78;;
24401;SDS011;12539;48.808;11.292;2022-08-21T07:51:52;4.95;;;4.38;;
24401;SDS011;12539;48.808;11.292;2022-08-21T07:54:18;10.45;;;5.43;;
24401;SDS011;12539;48.808;11.292;2022-08-21T07:56:44;7.93;;;5.47;;
24401;SDS011;12539;48.808;11.292;2022-08-21T07:59:10;8.30;;;6.85;;
24401;SDS011;12539;48.808;11.292;2022-08-21T08:01:36;8.82;;;7.05;;
24401;SDS011;12539;48.808;11.292;2022-08-21T08:04:02;5.95;;;5.35;;
24401;SDS011;12539;48.808;11.292;2022-08-21T08:06:28;6.75;;;6.15;;
24401;SDS011;12539;48.808;11.292;2022-08-21T08:08:55;7.75;;;4.95;;
24401;SDS011;12539;48.808;11.292;2022-08-21T08:11:21;7.43;;;5.20;;
24401;SDS011;12539;48.808;11.292;2022-08-21T08:13:48;6.78;;;6.10;;
24401;SDS011;12539;48.808;11.292;2022-08-21T08:16:15;6.90;;;6.30;;
24401;SDS011;12539;48.808;11.292;2022-08-21T08:18:41;7.43;;;5.65;;
24401;SDS011;12539;48.808;11.292;2022-08-21T08:21:08;7.93;;;5.28;;
24401;SDS011;12539;48.808;11.292;2022-08-21T08:23:35;5.95;;;4.55;;
24401;SDS011;12539;48.808;11.292;2022-08-21T08:26:01;6.88;;;6.10;;
24401;SDS011;12539;48.808;11.292;2022-08-21T08:28:31;5.40;;;4.90;;
24401;SDS011;12539;48.808;11.292;2022-08-21T08:30:58;7.15;;;6.38;;
24401;SDS011;12539;48.808;11.292;2022-08-21T08:33:24;5.82;;;5.32;;
24401;SDS011;12539;48.808;11.292;2022-08-21T08:35:50;7.03;;;4.55;;
24401;SDS011;12539;48.808;11.292;2022-08-21T08:38:20;6.55;;;5.90;;
24401;SDS011;12539;48.808;11.292;2022-08-21T08:40:53;6.18;;;5.07;;
24401;SDS011;12539;48.808;11.292;2022-08-21T08:43:31;6.60;;;5.40;;
24401;SDS011;12539;48.808;11.292;2022-08-21T08:45:59;5.55;;;4.88;;
24401;SDS011;12539;48.808;11.292;2022-08-21T08:54:03;6.78;;;4.88;;
24401;SDS011;12539;48.808;11.292;2022-08-21T08:56:33;6.38;;;4.55;;
24401;SDS011;12539;48.808;11.292;2022-08-21T08:59:02;4.65;;;3.95;;
24401;SDS011;12539;48.808;11.292;2022-08-21T09:01:33;5.20;;;4.63;;
24401;SDS011;12539;48.808;11.292;2022-08-21T09:03:59;10.02;;;5.90;;
24401;SDS011;12539;48.808;11.292;2022-08-21T09:06:28;7.28;;;5.18;;
24401;SDS011;12539;48.808;11.292;2022-08-21T09:15:35;13.23;;;11.85;;
24401;SDS011;12539;48.808;11.292;2022-08-21T09:28:35;22.45;;;18.42;;
24401;SDS011;12539;48.808;11.292;2022-08-21T09:31:03;20.85;;;16.33;;
24401;SDS011;12539;48.808;11.292;2022-08-21T09:33:31;15.32;;;13.63;;
24401;SDS011;12539;48.808;11.292;2022-08-21T09:35:57;15.95;;;14.25;;
24401;SDS011;12539;48.808;11.292;2022-08-21T09:40:58;10.82;;;9.65;;
24401;SDS011;12539;48.808;11.292;2022-08-21T09:43:26;17.17;;;11.80;;
24401;SDS011;12539;48.808;11.292;2022-08-21T09:48:27;11.90;;;10.65;;
24401;SDS011;12539;48.808;11.292;2022-08-21T09:51:04;15.50;;;13.57;;
24401;SDS011;12539;48.808;11.292;2022-08-21T09:53:39;13.88;;;11.82;;
24401;SDS011;12539;48.808;11.292;2022-08-21T09:56:18;10.45;;;9.35;;
24401;SDS011;12539;48.808;11.292;2022-08-21T10:01:43;13.43;;;10.52;;
24401;SDS011;12539;48.808;11.292;2022-08-21T10:04:14;15.43;;;12.25;;
24401;SDS011;12539;48.808;11.292;2022-08-21T10:06:44;13.65;;;11.10;;
24401;SDS011;12539;48.808;11.292;2022-08-21T10:09:11;9.32;;;8.27;;
24401;SDS011;12539;48.808;11.292;2022-08-21T10:11:40;8.98;;;7.28;;
24401;SDS011;12539;48.808;11.292;2022-08-21T10:14:59;10.52;;;8.13;;
24401;SDS011;12539;48.808;11.292;2022-08-21T10:17:17;9.30;;;8.00;;
24401;SDS011;12539;48.808;11.292;2022-08-21T10:20:20;14.60;;;9.52;;
24401;SDS011;12539;48.808;11.292;2022-08-21T10:23:02;9.30;;;8.13;;
24401;SDS011;12539;48.808;11.292;2022-08-21T10:25:57;13.95;;;9.23;;
24401;SDS011;12539;48.808;11.292;2022-08-21T10:28:44;9.85;;;6.55;;
24401;SDS011;12539;48.808;11.292;2022-08-21T10:37:01;9.52;;;6.93;;
24401;SDS011;12539;48.808;11.292;2022-08-21T10:40:26;7.93;;;7.13;;
24401;SDS011;12539;48.808;11.292;2022-08-21T10:49:09;8.05;;;6.13;;
24401;SDS011;12539;48.808;11.292;2022-08-21T10:51:54;9.68;;;7.88;;
24401;SDS011;12539;48.808;11.292;2022-08-21T10:54:35;7.97;;;6.60;;
24401;SDS011;12539;48.808;11.292;2022-08-21T10:57:11;5.15;;;4.65;;
24401;SDS011;12539;48.808;11.292;2022-08-21T10:59:49;5.75;;;4.40;;
24401;SDS011;12539;48.808;11.292;2022-08-21T11:02:27;10.23;;;6.22;;
24401;SDS011;12539;48.808;11.292;2022-08-21T11:05:10;6.22;;;5.38;;
24401;SDS011;12539;48.808;11.292;2022-08-21T11:07:48;5.75;;;4.65;;
24401;SDS011;12539;48.808;11.292;2022-08-21T11:10:26;9.07;;;5.10;;
24401;SDS011;12539;48.808;11.292;2022-08-21T11:13:04;6.45;;;5.07;;
24401;SDS011;12539;48.808;11.292;2022-08-21T11:24:16;6.97;;;5.00;;
24401;SDS011;12539;48.808;11.292;2022-08-21T11:30:06;6.82;;;4.03;;
24401;SDS011;12539;48.808;11.292;2022-08-21T11:43:53;5.45;;;4.82;;
24401;SDS011;12539;48.808;11.292;2022-08-21T11:49:28;6.45;;;3.92;;
24401;SDS011;12539;48.808;11.292;2022-08-21T11:52:14;3.38;;;3.03;;
24401;SDS011;12539;48.808;11.292;2022-08-21T12:02:38;4.22;;;3.50;;
24401;SDS011;12539;48.808;11.292;2022-08-21T12:05:12;3.38;;;3.08;;
24401;SDS011;12539;48.808;11.292;2022-08-21T12:11:09;5.38;;;4.00;;
24401;SDS011;12539;48.808;11.292;2022-08-21T12:13:58;5.85;;;4.13;;
24401;SDS011;12539;48.808;11.292;2022-08-21T12:16:29;4.53;;;3.35;;
24401;SDS011;12539;48.808;11.292;2022-08-21T12:24:30;3.63;;;2.83;;
24401;SDS011;12539;48.808;11.292;2022-08-21T12:27:13;4.30;;;3.13;;
24401;SDS011;12539;48.808;11.292;2022-08-21T12:29:51;5.40;;;2.90;;
24401;SDS011;12539;48.808;11.292;2022-08-21T12:32:23;5.35;;;3.50;;
24401;SDS011;12539;48.808;11.292;2022-08-21T12:35:14;5.13;;;3.40;;
24401;SDS011;12539;48.808;11.292;2022-08-21T12:37:44;5.85;;;4.15;;
24401;SDS011;12539;48.808;11.292;2022-08-21T12:42:42;5.30;;;3.65;;
24401;SDS011;12539;48.808;11.292;2022-08-21T12:45:32;4.03;;;2.63;;
24401;SDS011;12539;48.808;11.292;2022-08-21T12:51:27;4.78;;;3.70;;
24401;SDS011;12539;48.808;11.292;2022-08-21T12:53:58;5.88;;;4.28;;
24401;SDS011;12539;48.808;11.292;2022-08-21T12:56:28;4.20;;;3.08;;
24401;SDS011;12539;48.808;11.292;2022-08-21T12:59:01;6.35;;;4.75;;
24401;SDS011;12539;48.808;11.292;2022-08-21T13:04:01;3.78;;;3.00;;
24401;SDS011;12539;48.808;11.292;2022-08-21T13:06:32;3.35;;;2.67;;
24401;SDS011;12539;48.808;11.292;2022-08-21T13:09:05;4.45;;;2.72;;
24401;SDS011;12539;48.808;11.292;2022-08-21T13:11:35;3.85;;;2.65;;
24401;SDS011;12539;48.808;11.292;2022-08-21T13:14:02;4.45;;;3.22;;
24401;SDS011;12539;48.808;11.292;2022-08-21T13:16:29;3.55;;;2.80;;
24401;SDS011;12539;48.808;11.292;2022-08-21T13:21:32;4.95;;;4.03;;
24401;SDS011;12539;48.808;11.292;2022-08-21T13:26:43;4.03;;;2.53;;
24401;SDS011;12539;48.808;11.292;2022-08-21T13:29:13;4.28;;;2.95;;
24401;SDS011;12539;48.808;11.292;2022-08-21T13:31:42;3.63;;;2.95;;
24401;SDS011;12539;48.808;11.292;2022-08-21T13:34:13;6.18;;;4.18;;
24401;SDS011;12539;48.808;11.292;2022-08-21T13:36:41;4.88;;;3.95;;
24401;SDS011;12539;48.808;11.292;2022-08-21T13:39:09;5.75;;;3.75;;
24401;SDS011;12539;48.808;11.292;2022-08-21T13:41:39;5.03;;;3.97;;
24401;SDS011;12539;48.808;11.292;2022-08-21T13:44:14;3.42;;;2.58;;
24401;SDS011;12539;48.808;11.292;2022-08-21T13:46:43;6.90;;;4.47;;
24401;SDS011;12539;48.808;11.292;2022-08-21T13:49:09;5.32;;;2.95;;
24401;SDS011;12539;48.808;11.292;2022-08-21T13:51:38;2.47;;;2.13;;
24401;SDS011;12539;48.808;11.292;2022-08-21T13:54:15;4.53;;;2.88;;
24401;SDS011;12539;48.808;11.292;2022-08-21T13:56:52;4.90;;;4.05;;
24401;SDS011;12539;48.808;11.292;2022-08-21T13:59:29;4.05;;;3.15;;
24401;SDS011;12539;48.808;11.292;2022-08-21T14:02:00;4.88;;;3.15;;
24401;SDS011;12539;48.808;11.292;2022-08-21T14:04:50;3.97;;;3.10;;
24401;SDS011;12539;48.808;11.292;2022-08-21T14:10:02;4.10;;;2.65;;
24401;SDS011;12539;48.808;11.292;2022-08-21T14:12:43;3.97;;;3.22;;
24401;SDS011;12539;48.808;11.292;2022-08-21T14:15:14;4.80;;;3.55;;
24401;SDS011;12539;48.808;11.292;2022-08-21T14:17:42;4.60;;;3.03;;
24401;SDS011;12539;48.808;11.292;2022-08-21T14:20:13;3.65;;;2.80;;
24401;SDS011;12539;48.808;11.292;2022-08-21T14:22:54;5.88;;;3.20;;
24401;SDS011;12539;48.808;11.292;2022-08-21T14:30:28;3.25;;;2.65;;
24401;SDS011;12539;48.808;11.292;2022-08-21T14:32:54;4.40;;;3.25;;
24401;SDS011;12539;48.808;11.292;2022-08-21T14:35:20;4.28;;;3.15;;
24401;SDS011;12539;48.808;11.292;2022-08-21T14:37:47;3.90;;;2.60;;
24401;SDS011;12539;48.808;11.292;2022-08-21T14:40:15;3.95;;;2.53;;
24401;SDS011;12539;48.808;11.292;2022-08-21T14:42:42;3.67;;;2.47;;
24401;SDS011;12539;48.808;11.292;2022-08-21T14:45:16;5.03;;;2.60;;
24401;SDS011;12539;48.808;11.292;2022-08-21T14:47:50;4.57;;;3.08;;
24401;SDS011;12539;48.808;11.292;2022-08-21T14:50:17;3.20;;;2.83;;
24401;SDS011;12539;48.808;11.292;2022-08-21T14:52:43;3.22;;;2.92;;
24401;SDS011;12539;48.808;11.292;2022-08-21T14:55:10;3.63;;;2.40;;
24401;SDS011;12539;48.808;11.292;2022-08-21T14:57:39;9.57;;;1.83;;
24401;SDS011;12539;48.808;11.292;2022-08-21T15:00:14;2.90;;;2.40;;
24401;SDS011;12539;48.808;11.292;2022-08-21T15:02:42;3.50;;;2.50;;
24401;SDS011;12539;48.808;11.292;2022-08-21T15:05:08;7.50;;;2.83;;
24401;SDS011;12539;48.808;11.292;2022-08-21T15:07:34;2.97;;;2.17;;
24401;SDS011;12539;48.808;11.292;2022-08-21T15:10:00;3.67;;;2.70;;
24401;SDS011;12539;48.808;11.292;2022-08-21T15:12:26;2.92;;;2.53;;
24401;SDS011;12539;48.808;11.292;2022-08-21T15:14:52;2.90;;;2.42;;
24401;SDS011;12539;48.808;11.292;2022-08-21T15:17:18;4.10;;;2.38;;
24401;SDS011;12539;48.808;11.292;2022-08-21T15:19:47;2.35;;;2.15;;
24401;SDS011;12539;48.808;11.292;2022-08-21T15:22:12;4.78;;;3.30;;
24401;SDS011;12539;48.808;11.292;2022-08-21T15:24:38;2.80;;;2.47;;
24401;SDS011;12539;48.808;11.292;2022-08-21T15:27:05;5.40;;;3.15;;
24401;SDS011;12539;48.808;11.292;2022-08-21T15:29:32;3.47;;;2.30;;
24401;SDS011;12539;48.808;11.292;2022-08-21T15:32:00;2.63;;;2.30;;
24401;SDS011;12539;48.808;11.292;2022-08-21T15:34:30;4.00;;;2.43;;
24401;SDS011;12539;48.808;11.292;2022-08-21T15:36:56;3.03;;;2.25;;
24401;SDS011;12539;48.808;11.292;2022-08-21T15:39:24;2.83;;;2.10;;
24401;SDS011;12539;48.808;11.292;2022-08-21T15:41:51;3.42;;;2.42;;
24401;SDS011;12539;48.808;11.292;2022-08-21T15:44:17;3.03;;;2.38;;
24401;SDS011;12539;48.808;11.292;2022-08-21T15:46:43;3.15;;;2.85;;
24401;SDS011;12539;48.808;11.292;2022-08-21T15:49:10;2.80;;;2.47;;
24401;SDS011;12539;48.808;11.292;2022-08-21T15:51:36;2.88;;;2.50;;
24401;SDS011;12539;48.808;11.292;2022-08-21T15:54:02;3.95;;;2.60;;
24401;SDS011;12539;48.808;11.292;2022-08-21T15:56:35;3.30;;;2.63;;
24401;SDS011;12539;48.808;11.292;2022-08-21T15:59:13;3.42;;;2.58;;
24401;SDS011;12539;48.808;11.292;2022-08-21T16:01:41;2.70;;;2.15;;
24401;SDS011;12539;48.808;11.292;2022-08-21T16:04:08;2.95;;;2.47;;
24401;SDS011;12539;48.808;11.292;2022-08-21T16:06:35;3.22;;;2.72;;
24401;SDS011;12539;48.808;11.292;2022-08-21T16:09:00;3.38;;;2.90;;
24401;SDS011;12539;48.808;11.292;2022-08-21T16:11:26;3.42;;;2.50;;
24401;SDS011;12539;48.808;11.292;2022-08-21T16:13:53;3.08;;;2.50;;
24401;SDS011;12539;48.808;11.292;2022-08-21T16:16:19;2.55;;;2.20;;
24401;SDS011;12539;48.808;11.292;2022-08-21T16:18:47;3.83;;;2.97;;
24401;SDS011;12539;48.808;11.292;2022-08-21T16:21:14;2.53;;;2.08;;
24401;SDS011;12539;48.808;11.292;2022-08-21T16:23:40;3.58;;;2.72;;
24401;SDS011;12539;48.808;11.292;2022-08-21T16:26:07;2.80;;;2.47;;
24401;SDS011;12539;48.808;11.292;2022-08-21T16:28:34;2.92;;;2.28;;